createdAt,value
2019-02-12T00:04:49.268Z,8.40
2019-02-12T00:09:53.135Z,8.30
2019-02-12T00:14:58.302Z,8.30
2019-02-12T00:20:02.160Z,8.30
2019-02-12T00:25:06.175Z,8.20
2019-02-12T00:30:10.222Z,8.30
2019-02-12T00:35:14.134Z,8.30
2019-02-12T00:40:18.089Z,8.40
2019-02-12T00:45:22.017Z,8.40
2019-02-12T00:50:26.011Z,8.30
2019-02-12T00:55:29.907Z,8.20
2019-02-12T01:00:33.775Z,8.40
2019-02-12T01:05:37.673Z,8.30
2019-02-12T01:10:41.544Z,8.20
2019-02-12T01:15:45.431Z,8.40
2019-02-12T01:20:49.294Z,8.30
2019-02-12T01:25:53.231Z,8.40
2019-02-12T01:30:57.121Z,8.30
2019-02-12T01:36:01.019Z,8.20
2019-02-12T01:41:04.973Z,8.20
2019-02-12T01:46:08.851Z,8.30
2019-02-12T01:51:12.769Z,8.20
2019-02-12T01:56:16.628Z,8.20
2019-02-12T02:01:20.484Z,8.30
2019-02-12T02:06:24.355Z,8.40
2019-02-12T02:11:28.331Z,8.20
2019-02-12T02:16:32.443Z,8.20
2019-02-12T02:21:43.866Z,8.50
2019-02-12T02:26:42.082Z,8.30
2019-02-12T02:31:45.954Z,8.20
2019-02-12T02:36:49.899Z,8.50
2019-02-12T02:41:53.874Z,8.20
2019-02-12T02:46:57.847Z,8.10
2019-02-12T02:52:01.723Z,8.30
2019-02-12T02:57:05.691Z,8.30
2019-02-12T03:02:09.727Z,8.30
2019-02-12T03:07:13.604Z,8.30
2019-02-12T03:12:18.182Z,7.90
2019-02-12T03:17:22.218Z,8.20
2019-02-12T03:22:26.163Z,8.30
2019-02-12T03:27:30.040Z,8.10
2019-02-12T03:32:33.912Z,8.00
2019-02-12T03:37:38.099Z,8.00
2019-02-12T03:42:42.060Z,8.00
2019-02-12T03:47:45.952Z,8.00
2019-02-12T03:52:49.977Z,7.90
2019-02-12T03:57:53.943Z,8.00
2019-02-12T04:03:02.760Z,8.10
2019-02-12T04:08:07.055Z,8.00
2019-02-12T04:13:10.948Z,8.10
2019-02-12T04:18:14.891Z,8.00
2019-02-12T04:23:18.925Z,8.10
2019-02-12T04:28:23.252Z,7.90
2019-02-12T04:33:27.144Z,8.00
2019-02-12T04:38:31.047Z,8.00
2019-02-12T04:43:34.935Z,8.10
2019-02-12T04:48:38.839Z,8.10
2019-02-12T04:53:42.955Z,8.00
2019-02-12T04:58:46.838Z,8.10
2019-02-12T05:03:50.726Z,8.00
2019-02-12T05:09:25.903Z,8.00
2019-02-12T05:14:29.784Z,8.10
2019-02-12T05:19:33.732Z,7.80
2019-02-12T05:24:37.666Z,7.90
2019-02-12T05:29:41.534Z,8.00
2019-02-12T05:34:45.407Z,8.00
2019-02-12T05:39:49.284Z,7.80
2019-02-12T05:44:53.151Z,7.90
2019-02-12T05:49:57.069Z,7.90
2019-02-12T05:55:01.020Z,7.80
2019-02-12T06:00:07.029Z,7.90
2019-02-12T06:05:11.434Z,8.10
2019-02-12T06:10:15.374Z,8.00
2019-02-12T06:15:19.451Z,8.00
2019-02-12T06:20:23.515Z,7.80
2019-02-12T06:25:27.401Z,7.80
2019-02-12T06:30:31.322Z,7.80
2019-02-12T06:35:35.194Z,8.00
2019-02-12T06:40:39.060Z,7.80
2019-02-12T06:45:42.939Z,7.80
2019-02-12T06:50:46.837Z,7.60
2019-02-12T06:55:50.719Z,7.80
2019-02-12T07:00:54.607Z,7.80
2019-02-12T07:06:25.727Z,7.70
2019-02-12T07:12:13.687Z,7.80
2019-02-12T07:17:35.426Z,7.70
2019-02-12T07:22:56.051Z,7.70
2019-02-12T07:28:50.102Z,7.60
2019-02-12T07:34:50.136Z,7.80
2019-02-12T07:39:58.916Z,7.80
2019-02-12T07:45:22.520Z,7.50
2019-02-12T07:51:19.960Z,7.70
2019-02-12T07:57:07.328Z,7.70
2019-02-12T08:02:48.565Z,7.70
2019-02-12T08:08:34.024Z,7.70
2019-02-12T08:14:06.523Z,7.80
2019-02-12T08:19:49.026Z,7.70
2019-02-12T08:25:09.363Z,7.80
2019-02-12T08:30:27.113Z,7.70
2019-02-12T08:35:58.152Z,7.70
2019-02-12T08:41:52.975Z,7.70
2019-02-12T08:47:15.940Z,7.80
2019-02-12T08:53:01.739Z,7.70
2019-02-12T08:58:23.179Z,7.60
2019-02-12T09:03:57.998Z,7.80
2019-02-12T09:09:43.426Z,7.80
2019-02-12T09:15:16.807Z,7.70
2019-02-12T09:21:05.085Z,7.80
2019-02-12T09:26:18.439Z,7.80
2019-02-12T09:31:59.455Z,7.80
2019-02-12T09:37:24.760Z,7.70
2019-02-12T09:42:54.795Z,8.00
2019-02-12T09:48:06.800Z,8.00
2019-02-12T09:53:31.835Z,8.10
2019-02-12T09:59:03.684Z,8.10
2019-02-12T10:04:39.880Z,7.90
2019-02-12T10:10:08.479Z,8.00
2019-02-12T10:15:56.374Z,8.00
2019-02-12T10:21:34.944Z,8.10
2019-02-12T10:26:40.347Z,8.10
2019-02-12T10:31:43.662Z,7.80
2019-02-12T10:36:47.544Z,7.90
2019-02-12T10:41:51.571Z,8.00
2019-02-12T10:46:55.555Z,8.20
2019-02-12T10:51:59.503Z,8.10
2019-02-12T10:57:03.740Z,8.40
2019-02-12T11:02:07.695Z,8.30
2019-02-12T11:07:11.649Z,8.20
2019-02-12T11:12:15.535Z,7.90
2019-02-12T11:17:19.411Z,8.30
2019-02-12T11:22:24.252Z,8.30
2019-02-12T11:27:28.128Z,8.30
2019-02-12T11:32:32.003Z,8.30
2019-02-12T11:37:36.127Z,8.30
2019-02-12T11:42:40.170Z,8.30
2019-02-12T11:47:44.243Z,8.40
2019-02-12T11:52:48.199Z,8.30
2019-02-12T11:57:52.093Z,8.30
2019-02-12T12:02:56.226Z,8.30
2019-02-12T12:08:00.138Z,8.40
2019-02-12T12:13:04.175Z,8.30
2019-02-12T12:18:08.070Z,8.30
2019-02-12T12:23:12.048Z,8.20
2019-02-12T12:28:15.975Z,8.50
2019-02-12T12:33:22.150Z,8.30
2019-02-12T12:38:26.306Z,8.40
2019-02-12T12:43:30.178Z,8.20
2019-02-12T12:48:34.238Z,8.50
2019-02-12T12:53:38.219Z,8.60
2019-02-12T12:58:42.103Z,8.60
2019-02-12T13:03:46.044Z,8.60
2019-02-12T13:08:51.139Z,8.60
2019-02-12T13:13:55.143Z,8.50
2019-02-12T13:18:59.145Z,8.60
2019-02-12T13:24:03.132Z,8.60
2019-02-12T13:29:07.019Z,8.70
2019-02-12T13:34:10.943Z,8.70
2019-02-12T13:39:15.106Z,8.60
2019-02-12T13:44:19.152Z,8.80
2019-02-12T13:49:23.071Z,8.90
2019-02-12T13:54:27.042Z,8.90
2019-02-12T13:59:31.032Z,8.70
2019-02-12T14:04:35.007Z,8.70
2019-02-12T14:09:38.894Z,8.60
2019-02-12T14:14:43.447Z,8.80
2019-02-12T14:19:48.376Z,8.60
2019-02-12T14:24:52.338Z,8.50
2019-02-12T14:29:56.407Z,8.70
2019-02-12T14:35:00.349Z,8.80
2019-02-12T14:40:04.616Z,8.60
2019-02-12T14:45:11.823Z,8.80
2019-02-12T14:50:15.970Z,9.10
2019-02-12T14:55:19.967Z,8.70
2019-02-12T15:00:24.117Z,8.80
2019-02-12T15:05:28.528Z,8.90
2019-02-12T15:10:32.525Z,9.00
2019-02-12T15:15:36.479Z,8.80
2019-02-12T15:20:40.448Z,8.90
2019-02-12T15:25:44.417Z,9.00
2019-02-12T15:30:48.386Z,8.90
2019-02-12T15:35:52.298Z,8.90
2019-02-12T15:40:56.559Z,8.90
2019-02-12T15:46:00.535Z,8.90
2019-02-12T15:51:04.591Z,8.90
2019-02-12T15:56:08.726Z,8.80
2019-02-12T16:01:12.745Z,12.10
2019-02-12T16:06:19.293Z,12.30
2019-02-12T16:11:25.534Z,10.60
2019-02-12T16:16:30.157Z,10.20
2019-02-12T16:21:35.095Z,9.80
2019-02-12T16:26:38.991Z,9.80
2019-02-12T16:31:43.375Z,9.30
2019-02-12T16:36:47.382Z,9.50
2019-02-12T16:41:51.335Z,9.50
2019-02-12T16:46:55.434Z,9.20
2019-02-12T16:51:59.520Z,9.40
2019-02-12T16:57:03.594Z,9.20
2019-02-12T17:02:07.556Z,9.00
2019-02-12T17:07:11.440Z,9.00
2019-02-12T17:12:15.391Z,9.10
2019-02-12T17:17:19.271Z,9.00
2019-02-12T17:22:23.158Z,9.10
2019-02-12T17:27:27.060Z,8.80
2019-02-12T17:32:31.198Z,8.90
2019-02-12T17:37:35.182Z,9.10
2019-02-12T17:42:39.218Z,8.80
2019-02-12T17:47:43.351Z,8.90
2019-02-12T17:52:48.093Z,8.60
2019-02-12T17:57:52.062Z,8.60
2019-02-12T18:02:55.997Z,8.60
2019-02-12T18:07:59.959Z,8.60
2019-02-12T18:13:04.016Z,8.70
2019-02-12T18:18:07.920Z,8.60
2019-02-12T18:23:11.821Z,8.60
2019-02-12T18:28:15.743Z,8.60
2019-02-12T18:33:19.991Z,8.70
2019-02-12T18:38:23.891Z,8.60
2019-02-12T18:43:27.788Z,8.70
2019-02-12T18:48:31.791Z,8.70
2019-02-12T18:53:35.779Z,8.50
2019-02-12T18:58:39.700Z,8.50
2019-02-12T19:03:46.677Z,8.70
2019-02-12T19:08:50.763Z,8.40
2019-02-12T19:13:55.795Z,8.30
2019-02-12T19:18:59.762Z,8.50
2019-02-12T19:24:03.712Z,9.00
2019-02-12T19:29:07.594Z,8.60
2019-02-12T19:34:11.464Z,8.60
2019-02-12T19:39:15.452Z,8.70
2019-02-12T19:44:19.307Z,8.60
2019-02-12T19:49:23.224Z,8.70
2019-02-12T19:54:27.112Z,8.30
2019-02-12T19:59:30.967Z,8.30
2019-02-12T20:04:34.851Z,8.40
2019-02-12T20:09:38.974Z,8.30
2019-02-12T20:14:42.843Z,8.30
2019-02-12T20:19:47.383Z,8.40
2019-02-12T20:24:51.312Z,8.40
2019-02-12T20:29:56.703Z,8.30
2019-02-12T20:35:08.591Z,8.30
2019-02-12T20:40:12.907Z,8.30
2019-02-12T20:45:16.946Z,8.30
2019-02-12T20:50:20.821Z,8.30
2019-02-12T20:55:25.801Z,8.40
2019-02-12T21:00:29.734Z,8.20
2019-02-12T21:05:33.659Z,8.40
2019-02-12T21:10:37.531Z,8.30
2019-02-12T21:15:41.986Z,8.40
2019-02-12T21:20:45.855Z,8.40
2019-02-12T21:25:49.736Z,8.00
2019-02-12T21:30:59.215Z,8.30
2019-02-12T21:36:03.362Z,8.10
2019-02-12T21:41:08.783Z,8.10
2019-02-12T21:46:13.689Z,8.00
2019-02-12T21:51:17.632Z,8.00
2019-02-12T21:56:21.503Z,7.90
2019-02-12T22:01:25.372Z,7.90
2019-02-12T22:06:29.234Z,8.00
2019-02-12T22:11:33.120Z,8.10
2019-02-12T22:16:36.999Z,8.00
2019-02-12T22:21:40.943Z,7.90
2019-02-12T22:26:44.838Z,8.10
2019-02-12T22:31:48.717Z,8.00
2019-02-12T22:36:52.663Z,8.10
2019-02-12T22:41:56.542Z,8.00
2019-02-12T22:47:00.412Z,8.00
2019-02-12T22:52:04.356Z,8.10
2019-02-12T22:57:08.218Z,8.00
2019-02-12T23:02:12.408Z,8.00
2019-02-12T23:07:16.432Z,8.10
2019-02-12T23:12:20.451Z,8.00
2019-02-12T23:17:24.404Z,8.10
2019-02-12T23:22:28.350Z,8.10
2019-02-12T23:27:32.218Z,8.00
2019-02-12T23:32:36.086Z,8.10
2019-02-12T23:37:40.031Z,8.10
2019-02-12T23:42:43.903Z,8.30
2019-02-12T23:47:47.831Z,8.20
2019-02-12T23:52:51.695Z,8.30
2019-02-12T23:57:55.591Z,8.10
